Time;durP1;ratioP1;P1;durP2;ratioP2;P2;SDS_P1;SDS_P2;PMS_P1;PMS_P2;Temp;Humidity;BMP_temperature;BMP_pressure;BME280_temperature;BME280_humidity;BME280_pressure;Samples;Min_cycle;Max_cycle;Signal;HPM_P1;HPM_P2
2023/03/27 00:01:24;;;;;;;5.40;2.28;;;;;;;12.25;78.73;98322.56;4416662;32;33353;-76
2023/03/27 00:03:52;;;;;;;5.68;2.35;;;;;;;12.75;76.87;98311.09;4399120;32;33678;-76
2023/03/27 00:06:20;;;;;;;5.93;2.40;;;;;;;12.38;77.39;98310.59;4393771;32;34703;-76
2023/03/27 00:08:52;;;;;;;7.35;2.47;;;;;;;12.12;78.91;98307.66;4408589;32;32519;-76
2023/03/27 00:11:20;;;;;;;5.18;2.58;;;;;;;12.52;77.50;98298.69;4440692;32;32993;-76
2023/03/27 00:13:48;;;;;;;6.37;2.78;;;;;;;12.69;76.81;98311.00;4401169;32;33712;-76
2023/03/27 00:16:20;;;;;;;6.35;2.58;;;;;;;13.16;74.80;98298.56;4379373;32;34701;-76
2023/03/27 00:18:48;;;;;;;5.35;2.50;;;;;;;12.92;75.22;98300.87;4423310;32;32464;-76
2023/03/27 00:21:16;;;;;;;5.50;2.47;;;;;;;12.65;76.31;98294.53;4410040;32;33791;-76
2023/03/27 00:23:44;;;;;;;5.80;2.30;;;;;;;12.69;76.42;98290.22;4390265;32;33423;-76
2023/03/27 00:26:13;;;;;;;6.13;2.03;;;;;;;12.47;77.04;98284.78;4389075;32;32262;-76
2023/03/27 00:28:40;;;;;;;6.80;1.97;;;;;;;12.65;76.57;98278.06;4437974;32;33408;-76
2023/03/27 00:31:12;;;;;;;5.20;2.20;;;;;;;12.82;75.80;98273.06;4412574;32;33812;-76
2023/03/27 00:33:41;;;;;;;7.50;2.53;;;;;;;13.00;74.79;98262.87;4391185;32;33358;-76
2023/03/27 00:36:09;;;;;;;6.68;2.42;;;;;;;12.88;75.36;98266.19;4394612;32;33492;-76
2023/03/27 00:38:38;;;;;;;5.50;1.90;;;;;;;12.35;77.53;98274.25;4402437;32;34416;-76
2023/03/27 00:41:07;;;;;;;5.70;1.95;;;;;;;12.24;77.48;98271.47;4419178;32;34413;-76
2023/03/27 00:43:42;;;;;;;5.72;2.40;;;;;;;12.44;77.00;98263.97;4393635;32;144186;-76
2023/03/27 00:46:39;;;;;;;8.38;2.70;;;;;;;12.47;76.88;98257.94;4406407;32;33610;-76
2023/03/27 00:49:09;;;;;;;7.44;2.66;;;;;;;12.43;77.44;98258.75;4384098;32;31168;-76
2023/03/27 00:51:39;;;;;;;5.75;2.67;;;;;;;12.05;79.34;98248.72;4413267;32;32684;-76
2023/03/27 00:54:07;;;;;;;5.87;2.23;;;;;;;12.10;79.18;98247.06;4381133;32;34402;-75
2023/03/27 00:56:37;;;;;;;5.57;2.37;;;;;;;12.24;78.91;98244.66;4401589;32;34520;-76
2023/03/27 00:59:09;;;;;;;5.30;2.50;;;;;;;12.07;79.01;98242.72;4423509;32;33326;-75
2023/03/27 01:01:37;;;;;;;5.20;2.53;;;;;;;12.02;79.83;98240.91;4390066;32;33393;-75
2023/03/27 01:04:07;;;;;;;7.32;2.85;;;;;;;12.12;79.56;98235.84;4414811;32;33692;-75
2023/03/27 01:06:35;;;;;;;4.90;2.45;;;;;;;12.24;78.74;98227.34;4390993;32;34604;-75
2023/03/27 01:09:03;;;;;;;5.55;2.62;;;;;;;12.50;77.48;98222.50;4380385;32;34077;-75
2023/03/27 01:11:52;;;;;;;6.55;3.33;;;;;;;12.46;77.63;98215.53;4399444;32;33802;-75
2023/03/27 01:14:29;;;;;;;5.97;3.42;;;;;;;12.26;78.76;98212.66;4390962;32;32753;-75
2023/03/27 01:17:42;;;;;;;5.65;3.20;;;;;;;12.84;75.65;98206.38;4385385;32;33295;-75
2023/03/27 01:20:12;;;;;;;6.57;3.00;;;;;;;13.31;73.28;98208.59;4406705;32;31252;-75
2023/03/27 01:23:04;;;;;;;7.15;3.12;;;;;;;12.73;75.11;98204.56;4417874;32;34164;-75
2023/03/27 01:25:40;;;;;;;5.93;2.85;;;;;;;12.16;78.21;98210.81;4406878;32;32612;-75
2023/03/27 01:28:30;;;;;;;6.00;2.85;;;;;;;11.19;83.84;98204.19;4440241;32;32765;-75
2023/03/27 01:31:14;;;;;;;7.28;2.87;;;;;;;10.98;85.03;98196.91;4386562;32;32876;-75
2023/03/27 01:34:03;;;;;;;5.70;2.70;;;;;;;11.53;82.85;98200.41;4378790;32;33732;-75
2023/03/27 01:36:48;;;;;;;5.15;2.22;;;;;;;11.81;80.84;98198.19;4372044;32;33108;-75
2023/03/27 01:39:28;;;;;;;6.43;2.55;;;;;;;12.88;75.89;98187.37;4392309;32;33902;-75
2023/03/27 01:42:21;;;;;;;6.37;2.87;;;;;;;12.36;77.70;98183.38;4399859;32;33394;-75
2023/03/27 01:44:55;;;;;;;5.30;2.70;;;;;;;12.05;79.21;98183.84;4391225;32;33092;-75
2023/03/27 01:47:39;;;;;;;4.55;2.37;;;;;;;11.89;80.31;98181.03;4385395;32;34083;-75
2023/03/27 01:50:19;;;;;;;5.15;2.20;;;;;;;11.84;80.13;98172.31;4410440;32;34052;-75
2023/03/27 01:52:52;;;;;;;5.10;2.40;;;;;;;10.89;84.34;98165.66;4382342;32;34118;-75
2023/03/27 01:55:23;;;;;;;5.50;2.58;;;;;;;10.54;86.78;98165.91;4378620;32;33435;-75
2023/03/27 01:57:59;;;;;;;4.55;2.22;;;;;;;11.06;84.37;98168.53;4403917;32;33646;-75
2023/03/27 02:00:28;;;;;;;6.00;2.55;;;;;;;11.09;84.17;98169.47;4383337;32;33410;-75
2023/03/27 02:03:26;;;;;;;3.93;2.30;;;;;;;11.40;82.88;98172.53;4393272;32;33595;-75
2023/03/27 02:06:00;;;;;;;4.53;2.33;;;;;;;11.39;82.69;98174.25;4395383;32;32487;-75
2023/03/27 02:08:45;;;;;;;4.42;2.30;;;;;;;11.37;82.59;98169.88;4390484;32;33294;-75
2023/03/27 02:11:13;;;;;;;5.57;2.30;;;;;;;10.87;84.64;98172.53;4408071;32;33923;-75
2023/03/27 02:13:47;;;;;;;5.75;2.28;;;;;;;10.82;85.49;98169.88;4392065;32;34185;-74
2023/03/27 02:16:19;;;;;;;6.35;2.28;;;;;;;11.13;83.62;98176.44;4385159;32;33348;-74
2023/03/27 02:18:56;;;;;;;6.65;2.60;;;;;;;11.04;83.84;98165.91;4395199;32;34284;-74
2023/03/27 02:21:25;;;;;;;5.37;2.45;;;;;;;11.07;83.77;98155.63;4402980;32;33200;-75
2023/03/27 02:23:53;;;;;;;3.95;2.10;;;;;;;12.34;77.45;98142.66;4403131;32;33240;-75
2023/03/27 02:26:20;;;;;;;4.53;2.30;;;;;;;11.92;78.32;98137.00;4411914;32;34198;-75
2023/03/27 02:28:54;;;;;;;6.30;2.40;;;;;;;12.24;77.74;98125.25;4413408;32;33565;-75
2023/03/27 02:31:31;;;;;;;6.36;2.40;;;;;;;12.41;77.13;98117.66;4395514;32;34326;-74
2023/03/27 02:34:06;;;;;;;5.20;2.17;;;;;;;12.91;74.60;98112.91;4439106;32;33496;-74
2023/03/27 02:36:56;;;;;;;6.57;2.42;;;;;;;12.60;75.78;98103.97;4379446;32;33029;-75
2023/03/27 02:39:33;;;;;;;4.97;2.05;;;;;;;12.13;77.53;98091.38;4392335;32;33543;-74
2023/03/27 02:42:38;;;;;;;6.07;2.12;;;;;;;12.64;75.35;98090.16;4438376;32;33795;-74
2023/03/27 02:45:23;;;;;;;3.90;1.70;;;;;;;13.31;72.00;98084.66;4414746;32;32628;-75
2023/03/27 02:47:55;;;;;;;4.80;1.90;;;;;;;13.21;71.59;98076.72;4419953;32;32819;-75
2023/03/27 02:50:47;;;;;;;4.20;1.62;;;;;;;13.55;69.48;98064.84;4410892;32;33298;-74
2023/03/27 02:53:19;;;;;;;4.25;1.70;;;;;;;13.35;70.06;98069.94;4421665;32;33087;-74
2023/03/27 02:55:59;;;;;;;5.45;1.92;;;;;;;13.17;70.72;98074.13;4393131;32;33670;-74
2023/03/27 02:58:43;;;;;;;4.55;1.70;;;;;;;13.06;71.07;98062.78;4417336;32;33757;-74
2023/03/27 03:01:14;;;;;;;5.37;1.80;;;;;;;12.51;73.43;98068.38;4399310;32;32889;-75
2023/03/27 03:04:08;;;;;;;4.19;1.81;;;;;;;12.14;75.20;98056.78;4392596;32;34330;-75
2023/03/27 03:06:40;;;;;;;5.00;2.00;;;;;;;11.64;77.71;98064.81;4398447;32;33424;-75
2023/03/27 03:09:08;;;;;;;4.32;1.87;;;;;;;11.48;78.89;98054.25;4424036;32;34179;-75
2023/03/27 03:11:38;;;;;;;3.13;1.40;;;;;;;11.44;79.22;98051.63;4382454;32;33399;-75
2023/03/27 03:14:05;;;;;;;3.55;1.50;;;;;;;11.37;79.36;98055.81;4382717;32;33949;-75
2023/03/27 03:16:33;;;;;;;4.82;1.20;;;;;;;11.41;79.20;98053.31;4387708;32;33487;-75
2023/03/27 03:19:01;;;;;;;4.30;1.20;;;;;;;11.03;79.79;98060.56;4390302;32;34482;-75
2023/03/27 03:21:30;;;;;;;4.82;1.40;;;;;;;10.03;86.37;98051.94;4394014;32;33827;-75
2023/03/27 03:23:59;;;;;;;3.08;1.25;;;;;;;9.72;88.57;98054.78;4425277;32;33852;-75
2023/03/27 03:26:26;;;;;;;5.10;1.40;;;;;;;10.27;85.70;98060.97;4411630;32;34041;-75
2023/03/27 03:28:56;;;;;;;4.37;1.58;;;;;;;9.69;88.12;98055.56;4435296;32;33358;-75
2023/03/27 03:31:41;;;;;;;4.70;1.70;;;;;;;9.18;92.63;98062.25;4427048;32;34099;-75
2023/03/27 03:34:11;;;;;;;7.45;2.10;;;;;;;9.03;94.44;98067.06;4434625;32;33381;-75
2023/03/27 03:36:40;;;;;;;6.20;2.10;;;;;;;8.91;96.93;98066.81;4416833;32;33452;-75
2023/03/27 03:39:08;;;;;;;6.07;2.23;;;;;;;10.65;86.82;98057.34;4416545;32;33531;-75
2023/03/27 03:41:35;;;;;;;7.95;2.45;;;;;;;9.87;90.76;98057.66;4449257;32;33789;-75
2023/03/27 03:44:03;;;;;;;5.70;2.40;;;;;;;9.97;90.43;98059.56;4393568;32;34005;-75
2023/03/27 03:46:31;;;;;;;7.25;2.50;;;;;;;11.31;82.50;98060.94;4397077;32;33929;-75
2023/03/27 03:48:59;;;;;;;6.32;2.45;;;;;;;11.35;81.71;98057.53;4383454;32;33233;-75
2023/03/27 03:51:27;;;;;;;5.95;2.62;;;;;;;11.89;78.83;98046.12;4392556;32;33639;-75
2023/03/27 03:53:55;;;;;;;5.68;2.30;;;;;;;11.78;78.27;98045.09;4439372;32;34393;-75
2023/03/27 03:56:23;;;;;;;5.20;2.42;;;;;;;11.94;77.97;98044.47;4408453;32;33598;-75
2023/03/27 03:58:51;;;;;;;6.35;2.20;;;;;;;12.03;77.56;98042.81;4432263;32;33354;-75
2023/03/27 04:01:19;;;;;;;6.10;2.40;;;;;;;11.93;77.38;98040.13;4390674;32;33676;-75
2023/03/27 04:03:48;;;;;;;6.93;2.60;;;;;;;11.78;78.50;98037.31;4390987;32;33907;-75
2023/03/27 04:06:19;;;;;;;8.05;3.37;;;;;;;11.25;80.57;98042.72;4411531;32;34008;-75
2023/03/27 04:08:48;;;;;;;8.57;2.92;;;;;;;11.90;77.59;98042.69;4419695;32;33412;-75
2023/03/27 04:11:19;;;;;;;5.82;2.72;;;;;;;11.99;76.10;98035.03;4394203;32;35009;-75
2023/03/27 04:13:47;;;;;;;6.25;2.95;;;;;;;11.58;77.67;98039.69;4394481;32;34781;-75
2023/03/27 04:16:16;;;;;;;6.22;2.40;;;;;;;11.19;79.72;98046.09;4408576;32;33220;-75
2023/03/27 04:18:44;;;;;;;5.25;2.45;;;;;;;11.13;80.66;98043.41;4416632;32;33833;-75
2023/03/27 04:21:16;;;;;;;4.25;2.00;;;;;;;11.46;78.91;98039.53;4392565;32;33667;-76
2023/03/27 04:23:47;;;;;;;5.18;1.98;;;;;;;11.67;78.27;98044.13;4404097;32;34210;-75
2023/03/27 04:26:15;;;;;;;5.90;2.67;;;;;;;11.55;78.37;98043.13;4394870;32;33148;-76
2023/03/27 04:28:44;;;;;;;7.87;3.75;;;;;;;10.96;80.36;98033.66;4393764;32;33346;-75
2023/03/27 04:31:25;;;;;;;6.75;3.37;;;;;;;10.21;84.01;98045.34;4379026;32;31561;-76
2023/03/27 04:33:54;;;;;;;9.00;4.18;;;;;;;10.90;82.40;98043.06;4401950;32;32197;-75
2023/03/27 04:36:23;;;;;;;9.07;3.92;;;;;;;11.14;80.61;98042.53;4430940;32;33789;-76
2023/03/27 04:38:51;;;;;;;7.90;3.80;;;;;;;11.48;78.94;98030.91;4403759;32;34410;-76
2023/03/27 04:41:20;;;;;;;6.93;3.00;;;;;;;11.52;79.50;98030.09;4394217;32;33482;-75
2023/03/27 04:43:47;;;;;;;7.75;3.28;;;;;;;11.47;79.72;98031.75;4375892;32;34812;-76
2023/03/27 04:46:15;;;;;;;5.80;2.90;;;;;;;11.55;78.83;98035.34;4382546;32;34126;-76
2023/03/27 04:48:43;;;;;;;7.10;3.00;;;;;;;11.84;78.27;98024.44;4397235;32;34306;-75
2023/03/27 04:51:13;;;;;;;7.62;2.50;;;;;;;12.20;75.60;98031.75;4374443;32;34331;-75
2023/03/27 04:53:41;;;;;;;5.80;2.40;;;;;;;12.36;74.49;98027.59;4388604;32;33795;-75
2023/03/27 04:56:10;;;;;;;10.18;2.90;;;;;;;12.15;75.59;98022.19;4426346;32;31935;-75
2023/03/27 04:58:40;;;;;;;7.67;2.97;;;;;;;12.55;73.50;98027.72;4438261;32;34460;-75
2023/03/27 05:01:08;;;;;;;6.32;2.85;;;;;;;12.14;74.99;98020.44;4392971;32;32601;-75
2023/03/27 05:03:39;;;;;;;8.23;2.97;;;;;;;11.38;78.94;98021.28;4377344;32;32954;-75
2023/03/27 05:06:08;;;;;;;7.45;2.65;;;;;;;11.78;77.25;98016.56;4400739;32;33989;-75
2023/03/27 05:08:36;;;;;;;8.23;3.10;;;;;;;10.98;79.73;98007.78;4416099;32;34441;-75
2023/03/27 05:11:04;;;;;;;11.12;3.47;;;;;;;10.41;83.55;98001.72;4386942;32;33481;-76
2023/03/27 05:13:35;;;;;;;8.23;2.47;;;;;;;10.13;86.28;98006.41;4376799;32;33808;-75
2023/03/27 05:16:03;;;;;;;7.28;2.67;;;;;;;9.93;86.30;98008.62;4402036;32;33423;-76
2023/03/27 05:18:34;;;;;;;5.85;2.22;;;;;;;9.88;87.00;98005.09;4440919;32;34404;-75
2023/03/27 05:21:02;;;;;;;5.93;2.50;;;;;;;9.91;86.41;98004.25;4396528;32;33621;-75
2023/03/27 05:23:30;;;;;;;6.05;2.17;;;;;;;9.95;85.63;98000.91;4432017;32;34722;-75
2023/03/27 05:25:58;;;;;;;8.68;2.50;;;;;;;10.99;80.49;98000.03;4440892;32;32086;-75
2023/03/27 05:28:32;;;;;;;7.25;1.90;;;;;;;10.19;83.84;98003.06;4396114;32;33243;-75
2023/03/27 05:31:00;;;;;;;5.72;2.03;;;;;;;10.25;83.00;97995.38;4390922;32;34193;-75
2023/03/27 05:33:28;;;;;;;7.10;2.10;;;;;;;10.22;83.65;98000.53;4395766;32;34832;-77
2023/03/27 05:35:56;;;;;;;5.32;2.30;;;;;;;10.50;82.92;97993.25;4387588;32;34382;-76
2023/03/27 05:38:25;;;;;;;8.52;3.20;;;;;;;10.45;82.78;98002.66;4393828;32;34428;-75
2023/03/27 05:40:53;;;;;;;6.72;2.80;;;;;;;10.92;79.70;97999.94;4411725;32;33644;-75
2023/03/27 05:43:21;;;;;;;8.20;3.00;;;;;;;11.04;78.66;97994.91;4434367;32;33872;-75
2023/03/27 05:45:49;;;;;;;8.30;4.12;;;;;;;10.68;81.44;97996.13;4395864;32;33495;-76
2023/03/27 05:48:16;;;;;;;9.68;4.20;;;;;;;10.53;83.26;97998.50;4413231;32;31700;-76
2023/03/27 05:50:45;;;;;;;8.93;4.97;;;;;;;10.34;84.82;97994.72;4408250;32;33391;-76
2023/03/27 05:53:14;;;;;;;9.48;5.47;;;;;;;10.47;84.62;97995.78;4400694;32;33822;-75
2023/03/27 05:55:44;;;;;;;10.23;5.20;;;;;;;10.46;84.90;97989.72;4420255;32;32942;-76
2023/03/27 05:58:12;;;;;;;9.68;5.32;;;;;;;10.38;85.48;97989.59;4400973;32;34523;-76
2023/03/27 06:00:41;;;;;;;12.65;5.35;;;;;;;10.28;85.84;97985.09;4396153;32;33491;-76
2023/03/27 06:03:11;;;;;;;7.50;3.72;;;;;;;10.36;85.52;97985.25;4427311;32;34258;-76
2023/03/27 06:05:40;;;;;;;7.37;3.65;;;;;;;10.17;85.50;97978.88;4434224;32;33300;-75
2023/03/27 06:08:10;;;;;;;9.57;3.90;;;;;;;10.22;85.66;97985.00;4421179;32;33988;-76
2023/03/27 06:10:40;;;;;;;7.90;3.43;;;;;;;10.02;85.89;97982.94;4420501;32;35615;-75
2023/03/27 06:13:11;;;;;;;6.45;2.92;;;;;;;10.23;86.08;97976.38;4414532;32;34494;-75
2023/03/27 06:15:43;;;;;;;5.78;2.50;;;;;;;10.19;85.24;97977.19;4421017;32;33191;-76
2023/03/27 06:18:14;;;;;;;5.87;2.70;;;;;;;10.28;84.29;97971.31;4391908;32;34339;-76
2023/03/27 06:20:41;;;;;;;5.93;2.40;;;;;;;10.10;84.99;97966.66;4421951;32;34268;-76
2023/03/27 06:23:09;;;;;;;4.60;2.13;;;;;;;10.22;84.41;97970.34;4416011;32;34185;-76
2023/03/27 06:25:38;;;;;;;4.65;2.25;;;;;;;10.35;82.89;97970.56;4423427;32;33287;-76
2023/03/27 06:28:07;;;;;;;4.53;1.83;;;;;;;10.33;83.74;97975.72;4444585;32;33715;-76
2023/03/27 06:30:37;;;;;;;5.55;1.90;;;;;;;10.18;82.81;97967.69;4410809;32;33687;-76
2023/03/27 06:33:08;;;;;;;4.05;1.40;;;;;;;9.57;85.79;97963.12;4428394;32;34205;-76
2023/03/27 06:35:35;;;;;;;4.60;1.77;;;;;;;10.02;83.56;97967.44;4421057;32;33439;-76
2023/03/27 06:38:05;;;;;;;4.55;1.65;;;;;;;9.46;86.71;97969.81;4408751;32;33954;-76
2023/03/27 06:40:34;;;;;;;4.80;1.73;;;;;;;10.31;82.62;97969.62;4421953;32;34284;-76
2023/03/27 06:43:07;;;;;;;3.10;1.48;;;;;;;10.28;81.92;97974.75;4419624;32;34206;-76
2023/03/27 06:45:43;;;;;;;4.68;1.75;;;;;;;9.72;85.07;97972.03;4436461;32;33713;-76
2023/03/27 06:48:13;;;;;;;5.22;1.85;;;;;;;10.18;82.20;97978.03;4424850;32;32946;-76
2023/03/27 06:50:50;;;;;;;7.17;1.90;;;;;;;10.59;81.80;97980.44;4406437;32;32871;-76
2023/03/27 06:53:19;;;;;;;5.55;1.90;;;;;;;10.76;80.47;97978.97;4419213;32;33845;-76
2023/03/27 06:55:54;;;;;;;6.72;2.10;;;;;;;10.46;82.22;97975.94;4417967;32;32529;-76
2023/03/27 06:58:23;;;;;;;4.55;1.80;;;;;;;10.42;84.99;97983.63;4421133;32;34459;-76
2023/03/27 07:00:50;;;;;;;4.50;1.50;;;;;;;10.35;84.75;97983.50;4396062;32;33532;-76
2023/03/27 07:03:24;;;;;;;5.53;1.40;;;;;;;10.78;81.28;97985.06;4410910;32;32930;-76
2023/03/27 07:05:54;;;;;;;4.62;1.23;;;;;;;10.76;79.58;97989.34;4418664;32;33132;-76
2023/03/27 07:08:25;;;;;;;4.72;1.40;;;;;;;10.72;79.46;97990.16;4426184;32;33284;-76
2023/03/27 07:10:53;;;;;;;3.47;1.27;;;;;;;10.77;80.06;97996.25;4417427;32;33844;-75
2023/03/27 07:13:24;;;;;;;5.22;1.15;;;;;;;10.68;80.76;97998.72;4421356;32;34149;-76
2023/03/27 07:15:53;;;;;;;5.50;1.73;;;;;;;10.90;79.78;98001.63;4402770;32;33166;-76
2023/03/27 07:18:22;;;;;;;4.72;1.70;;;;;;;11.05;79.51;97991.47;4424606;32;33229;-76
2023/03/27 07:20:50;;;;;;;5.85;2.10;;;;;;;9.92;85.30;97991.38;4411093;32;33240;-75
2023/03/27 07:23:17;;;;;;;6.62;2.75;;;;;;;10.80;82.29;97995.44;4422204;32;33457;-76
2023/03/27 07:25:48;;;;;;;5.72;2.40;;;;;;;10.80;82.32;97992.84;4434723;32;34223;-76
2023/03/27 07:28:19;;;;;;;6.53;2.95;;;;;;;10.35;84.57;97981.81;4442320;32;33494;-76
2023/03/27 07:30:47;;;;;;;6.87;3.10;;;;;;;10.28;85.23;97985.09;4435782;32;34440;-76
2023/03/27 07:33:20;;;;;;;7.68;3.10;;;;;;;10.12;86.32;97983.09;4405494;32;32231;-75
2023/03/27 07:35:48;;;;;;;5.43;2.35;;;;;;;10.10;86.47;97987.38;4400533;32;33174;-75
2023/03/27 07:38:18;;;;;;;7.80;2.33;;;;;;;10.12;86.12;97988.25;4388980;32;33015;-76
2023/03/27 07:40:49;;;;;;;5.03;2.12;;;;;;;10.34;85.54;97998.16;4410219;32;35428;-75
2023/03/27 07:43:18;;;;;;;4.95;2.20;;;;;;;10.24;85.74;98004.00;4406525;32;34967;-76
2023/03/27 07:45:46;;;;;;;7.03;2.83;;;;;;;10.14;86.27;98002.09;4402931;32;34296;-76
2023/03/27 07:48:14;;;;;;;8.65;3.00;;;;;;;10.06;86.62;98003.69;4391681;32;32792;-75
2023/03/27 07:50:43;;;;;;;5.97;2.53;;;;;;;10.26;86.57;97998.84;4393728;32;34364;-77
2023/03/27 07:53:13;;;;;;;5.65;2.30;;;;;;;10.29;86.37;97996.31;4379767;32;32753;-75
2023/03/27 07:56:02;;;;;;;3.92;1.87;;;;;;;10.19;85.83;97995.28;4396052;32;32261;-76
2023/03/27 07:58:31;;;;;;;3.55;1.77;;;;;;;9.97;86.92;97996.63;4407479;32;33655;-76
2023/03/27 08:01:00;;;;;;;3.72;1.20;;;;;;;9.77;87.54;97991.97;4396687;32;33913;-77
2023/03/27 08:03:29;;;;;;;4.65;1.67;;;;;;;9.58;85.58;97988.16;4436720;32;34108;-76
2023/03/27 08:05:59;;;;;;;3.10;1.00;;;;;;;9.29;87.14;97986.69;4417978;32;33432;-76
2023/03/27 08:08:28;;;;;;;2.33;1.00;;;;;;;9.30;84.70;97994.47;4404471;32;33608;-75
2023/03/27 08:10:57;;;;;;;2.78;1.00;;;;;;;9.22;86.68;98002.06;4400879;32;33820;-76
2023/03/27 08:13:25;;;;;;;3.27;1.13;;;;;;;9.41;84.42;98002.47;4430149;32;33480;-76
2023/03/27 08:16:12;;;;;;;3.28;1.42;;;;;;;9.10;87.38;98011.25;4426101;32;34162;-75
2023/03/27 08:18:41;;;;;;;3.95;1.30;;;;;;;9.47;85.44;98017.22;4422552;32;33480;-76
2023/03/27 08:21:10;;;;;;;5.20;1.70;;;;;;;9.44;84.60;98020.59;4393067;32;33477;-76
2023/03/27 08:23:39;;;;;;;5.43;1.90;;;;;;;10.23;82.28;98022.97;4416085;32;34793;-76
2023/03/27 08:26:09;;;;;;;4.17;1.50;;;;;;;10.42;81.35;98027.63;4390511;32;31306;-76
2023/03/27 08:28:37;;;;;;;6.55;1.80;;;;;;;10.25;82.32;98021.25;4421466;32;33771;-75
2023/03/27 08:31:11;;;;;;;4.50;1.77;;;;;;;10.46;82.60;98019.94;4429780;32;33825;-76
2023/03/27 08:33:40;;;;;;;4.07;1.53;;;;;;;10.23;83.76;98017.78;4419024;32;33347;-76
2023/03/27 08:36:11;;;;;;;4.62;1.48;;;;;;;10.90;81.35;98020.63;4406865;32;31979;-75
2023/03/27 08:38:41;;;;;;;5.68;1.92;;;;;;;11.14;79.82;98017.50;4434163;32;34282;-76
2023/03/27 08:41:23;;;;;;;6.97;2.10;;;;;;;10.60;81.79;98021.91;4420811;32;32560;-76
2023/03/27 08:43:58;;;;;;;5.80;2.40;;;;;;;10.43;84.45;98031.12;4404385;32;33108;-76
2023/03/27 08:46:31;;;;;;;5.37;3.00;;;;;;;10.69;83.50;98033.25;4410715;32;33293;-75
2023/03/27 08:49:10;;;;;;;10.30;4.80;;;;;;;10.62;84.26;98042.63;4425363;32;32928;-76
2023/03/27 08:51:41;;;;;;;9.00;5.05;;;;;;;9.55;90.58;98041.50;4435860;32;33147;-75
2023/03/27 08:54:27;;;;;;;8.25;4.72;;;;;;;10.32;88.67;98038.69;4390956;32;34446;-76
2023/03/27 08:56:56;;;;;;;8.50;4.47;;;;;;;10.81;85.68;98036.88;4423596;32;32622;-77
2023/03/27 08:59:27;;;;;;;9.38;5.30;;;;;;;10.98;84.08;98041.47;4408437;32;34888;-76
2023/03/27 09:02:16;;;;;;;9.43;5.55;;;;;;;10.09;89.37;98039.97;4419252;32;32995;-76
2023/03/27 09:05:00;;;;;;;11.10;6.12;;;;;;;9.27;95.03;98037.47;4433856;32;33348;-76
2023/03/27 09:08:00;;;;;;;9.77;5.05;;;;;;;9.34;96.69;98037.63;4416882;32;33340;-75
2023/03/27 09:10:31;;;;;;;6.80;3.87;;;;;;;9.24;94.04;98039.12;4409885;32;33365;-76
2023/03/27 09:13:18;;;;;;;7.72;4.53;;;;;;;8.84;96.92;98040.81;4413709;32;34326;-76
2023/03/27 09:15:59;;;;;;;8.20;4.60;;;;;;;8.37;100.00;98042.25;4423831;32;33285;-75
2023/03/27 09:18:52;;;;;;;7.60;3.83;;;;;;;8.94;100.00;98046.19;4388072;32;33639;-76
2023/03/27 09:21:33;;;;;;;7.68;3.35;;;;;;;8.13;100.00;98042.47;4397532;32;33167;-76
2023/03/27 09:24:15;;;;;;;6.10;3.25;;;;;;;8.64;98.58;98042.06;4395618;32;34379;-76
2023/03/27 09:26:45;;;;;;;6.50;3.40;;;;;;;7.91;100.00;98036.75;4390046;32;33001;-77
2023/03/27 09:29:33;;;;;;;6.70;3.60;;;;;;;8.00;100.00;98034.41;4384564;32;32762;-75
2023/03/27 09:32:02;;;;;;;6.00;3.80;;;;;;;8.46;100.00;98042.50;4416439;32;33477;-76
2023/03/27 09:34:34;;;;;;;8.23;4.12;;;;;;;9.12;96.29;98043.19;4396455;32;35775;-77
2023/03/27 09:37:04;;;;;;;6.75;4.10;;;;;;;9.41;95.44;98041.22;4413572;32;34538;-75
2023/03/27 09:39:33;;;;;;;8.15;4.68;;;;;;;9.58;92.42;98042.44;4404807;32;33059;-77
2023/03/27 09:42:18;;;;;;;7.72;4.72;;;;;;;9.27;94.01;98056.41;4398849;32;33681;-76
2023/03/27 09:44:49;;;;;;;9.95;5.40;;;;;;;9.34;93.86;98054.84;4398593;32;32551;-74
2023/03/27 09:47:21;;;;;;;7.07;4.47;;;;;;;9.25;94.53;98060.66;4395351;32;32110;-76
2023/03/27 09:49:55;;;;;;;6.50;3.78;;;;;;;9.04;95.83;98068.84;4376062;32;33036;-75
2023/03/27 09:52:37;;;;;;;7.90;4.17;;;;;;;8.82;97.22;98067.44;4376640;32;32862;-75
2023/03/27 09:55:28;;;;;;;6.55;3.95;;;;;;;8.85;98.06;98068.41;4383434;32;33028;-75
2023/03/27 09:58:14;;;;;;;7.35;4.47;;;;;;;9.14;96.35;98070.78;4410370;32;33147;-75
2023/03/27 10:00:42;;;;;;;7.75;4.70;;;;;;;9.47;95.06;98077.53;4396267;32;32720;-74
2023/03/27 10:03:15;;;;;;;7.37;3.58;;;;;;;9.40;94.96;98083.41;4381990;32;31769;-75
2023/03/27 10:05:45;;;;;;;7.78;4.12;;;;;;;9.35;93.36;98092.75;4385444;32;32527;-75
2023/03/27 10:08:22;;;;;;;6.18;3.17;;;;;;;9.35;94.75;98091.06;4395370;32;33745;-74
2023/03/27 10:10:57;;;;;;;6.03;3.05;;;;;;;9.46;91.97;98104.19;4416374;32;32359;-74
2023/03/27 10:13:28;;;;;;;6.30;3.10;;;;;;;9.37;92.37;98104.88;4403693;32;33346;-74
2023/03/27 10:16:03;;;;;;;5.03;2.33;;;;;;;9.35;92.11;98103.97;4399788;32;34655;-76
2023/03/27 10:18:42;;;;;;;5.20;2.30;;;;;;;9.27;91.54;98107.22;4387554;32;33396;-76
2023/03/27 10:21:17;;;;;;;4.80;2.10;;;;;;;9.72;87.75;98096.16;4385681;32;33035;-74
2023/03/27 10:23:48;;;;;;;2.97;1.48;;;;;;;9.52;88.84;98109.53;4397628;32;33328;-74
2023/03/27 10:26:25;;;;;;;3.33;1.75;;;;;;;9.48;89.95;98102.50;4411625;32;32992;-74
2023/03/27 10:29:05;;;;;;;4.45;1.80;;;;;;;9.82;86.70;98092.91;4403322;32;32916;-74
2023/03/27 10:31:36;;;;;;;3.75;1.87;;;;;;;9.73;88.05;98103.03;4386927;32;33177;-75
2023/03/27 10:34:07;;;;;;;5.07;1.60;;;;;;;9.59;88.11;98111.37;4411393;32;34270;-75
2023/03/27 10:36:45;;;;;;;4.62;1.80;;;;;;;9.72;88.09;98096.16;4371917;32;33057;-74
2023/03/27 10:39:17;;;;;;;4.60;1.73;;;;;;;9.98;85.58;98115.62;4389717;32;33368;-73
2023/03/27 10:41:46;;;;;;;5.53;2.20;;;;;;;10.26;85.65;98111.00;4389817;32;33592;-74
2023/03/27 10:44:17;;;;;;;4.28;1.92;;;;;;;10.12;85.69;98127.97;4389374;32;34753;-74
2023/03/27 10:46:47;;;;;;;4.25;1.92;;;;;;;10.35;85.14;98115.50;4397133;32;32959;-76
2023/03/27 10:49:24;;;;;;;3.80;1.40;;;;;;;10.61;84.11;98123.75;4419134;32;34118;-74
2023/03/27 10:52:14;;;;;;;4.97;1.67;;;;;;;10.83;81.39;98114.62;4389889;32;32376;-74
2023/03/27 10:55:08;;;;;;;4.12;1.40;;;;;;;9.86;86.21;98124.88;4374836;32;32988;-73
2023/03/27 10:57:36;;;;;;;3.30;1.37;;;;;;;10.43;83.34;98124.31;4396331;32;33676;-74
2023/03/27 11:00:17;;;;;;;3.77;1.27;;;;;;;10.17;84.23;98128.94;4398229;32;33702;-74
2023/03/27 11:03:00;;;;;;;3.85;2.28;;;;;;;10.30;83.12;98133.53;4396561;32;33613;-75
2023/03/27 11:05:36;;;;;;;6.20;4.07;;;;;;;10.24;83.77;98130.81;4390225;32;32589;-76
2023/03/27 11:08:07;;;;;;;14.85;9.93;;;;;;;10.08;82.67;98123.56;4388293;32;33056;-74
2023/03/27 11:10:41;;;;;;;19.98;13.50;;;;;;;9.43;86.18;98135.16;4391206;32;34146;-74
2023/03/27 11:13:23;;;;;;;20.52;14.40;;;;;;;9.35;87.67;98127.25;4411598;32;32981;-75
2023/03/27 11:15:57;;;;;;;30.90;19.73;;;;;;;9.10;89.90;98130.97;4369346;32;33029;-77
2023/03/27 11:18:35;;;;;;;30.98;22.13;;;;;;;9.17;90.20;98127.66;4370220;32;33013;-73
2023/03/27 11:21:06;;;;;;;32.38;21.45;;;;;;;9.34;89.85;98140.13;4386057;32;33155;-72
2023/03/27 11:23:46;;;;;;;26.73;17.48;;;;;;;9.35;89.79;98132.41;4375331;32;33479;-74
2023/03/27 11:26:15;;;;;;;48.33;24.37;;;;;;;9.16;90.54;98133.69;4419516;32;32918;-75
2023/03/27 11:29:08;;;;;;;29.23;17.07;;;;;;;9.21;91.48;98145.00;4383265;32;33397;-76
2023/03/27 11:31:45;;;;;;;24.42;16.10;;;;;;;8.95;91.15;98133.19;4403612;32;31674;-74
2023/03/27 11:34:27;;;;;;;29.10;18.90;;;;;;;9.03;90.04;98136.81;4416301;32;34029;-77
2023/03/27 11:37:04;;;;;;;28.95;19.10;;;;;;;9.04;91.66;98142.03;4414660;32;33807;-74
2023/03/27 11:39:54;;;;;;;26.50;16.20;;;;;;;8.97;92.03;98149.56;4401255;32;33080;-77
2023/03/27 11:42:25;;;;;;;34.08;20.20;;;;;;;9.19;90.71;98148.37;4404367;32;33361;-76
2023/03/27 11:44:53;;;;;;;33.72;22.35;;;;;;;9.18;90.34;98152.69;4402210;32;33251;-75
2023/03/27 11:47:35;;;;;;;35.30;20.58;;;;;;;9.21;91.69;98138.94;4398165;32;33331;-76
2023/03/27 11:50:08;;;;;;;34.88;19.30;;;;;;;9.18;90.52;98144.91;4437583;32;33808;-76
2023/03/27 11:53:03;;;;;;;21.10;13.27;;;;;;;9.11;89.79;98137.00;4417299;32;33360;-75
2023/03/27 11:55:56;;;;;;;25.77;14.35;;;;;;;9.19;89.60;98146.69;4391667;32;32726;-76
2023/03/27 11:58:33;;;;;;;41.35;21.45;;;;;;;9.03;88.67;98144.56;4405241;32;31747;-76
2023/03/27 12:01:06;;;;;;;31.90;17.30;;;;;;;9.25;89.17;98149.41;4402560;32;33809;-76
2023/03/27 12:04:07;;;;;;;24.20;15.15;;;;;;;9.11;88.87;98149.91;4418552;32;34154;-75